Latest Weather Observations for Warwick

IDQ60901

Issued at 5:11 am EST Monday 21 August 2017 (issued every 10 minutes, with the page automatically refreshed every 10 minutes)

About weather observations | Map of Brisbane area stations | Latest observations for Brisbane area | Other Formats
Station Details ID: 041525 Name: WARWICK Lat: -28.21 Lon: 152.10 Height: 475.4 m
Data from the previous 72 hours. | See also: Recent months at Warwick
Date/Time
EST
Temp
°C
App
Temp
°C
Dew
Point
°C
Rel
Hum
%
Delta-T
°C
Wind Press
QNH
hPa
Press
MSL
hPa
Rain since
9am
mm
Dir  Spd
km/h
Gust
km/h
Spd
kts
Gust
kts
21/05:00am 0.2 - - - - ENE 7 9 4 5 1020.1 1020.0 0.0
21/04:30am 0.7 - - - - NE 9 11 5 6 1019.7 1019.5 0.0
21/04:00am 2.9 -0.8 0.0 81 1.1 NE 9 9 5 5 1019.8 1019.6 0.0
21/03:30am 3.8 2.0 1.0 82 1.1 CALM 0 0 0 0 1020.1 1020.0 0.0
21/03:00am 3.3 1.3 0.2 80 1.2 CALM 0 0 0 0 1019.9 1019.8 0.0
21/02:30am 3.9 2.1 0.9 81 1.2 CALM 0 0 0 0 1020.1 1020.0 0.0
21/02:00am 4.7 2.9 1.5 80 1.3 CALM 0 0 0 0 1020.3 1020.2 0.0
21/01:30am 5.2 3.3 0.7 73 1.8 CALM 0 0 0 0 1020.3 1020.2 0.0
21/01:00am 3.9 0.7 0.9 81 1.2 NE 7 9 4 5 1020.4 1020.3 0.0
21/12:30am 2.5 0.3 -1.3 76 1.4 CALM 0 0 0 0 1020.8 1020.7 0.0
21/12:00am 5.4 2.6 -0.2 67 2.2 NE 4 9 2 5 1021.0 1020.9 0.0
 
Date/Time
EST
Temp
°C
App
Temp
°C
Dew
Point
°C
Rel
Hum
%
Delta-T
°C
Wind Press
QNH
hPa
Press
MSL
hPa
Rain since
9am
mm
Dir  Spd
km/h
Gust
km/h
Spd
kts
Gust
kts
20/11:30pm 6.1 3.8 0.3 66 2.3 NNE 2 7 1 4 1021.2 1021.1 0.0
20/11:00pm 5.3 3.2 -0.7 65 2.3 CALM 0 0 0 0 1021.2 1021.1 0.0
20/10:30pm 5.3 3.5 1.1 74 1.7 CALM 0 0 0 0 1021.2 1021.1 0.0
20/10:00pm 5.0 3.2 1.0 75 1.6 CALM 0 0 0 0 1020.8 1020.7 0.0
20/09:30pm 5.7 3.6 -1.1 61 2.6 CALM 0 0 0 0 1020.8 1020.7 0.0
20/09:00pm 6.5 4.5 0.0 63 2.6 CALM 0 0 0 0 1020.7 1020.6 0.0
20/08:30pm 7.2 5.3 0.8 64 2.6 CALM 0 0 0 0 1020.3 1020.2 0.0
20/08:00pm 8.4 6.5 0.6 58 3.2 CALM 0 0 0 0 1020.3 1020.2 0.0
20/07:30pm 9.0 5.8 -0.7 50 3.9 NNE 6 7 3 4 1020.1 1020.0 0.0
20/07:00pm 10.6 8.5 -1.0 44 4.7 CALM 0 0 0 0 1020.0 1019.9 0.0
20/06:30pm 11.0 7.2 -0.7 44 4.8 NE 9 13 5 7 1019.6 1019.4 0.0
20/06:00pm 11.6 9.7 0.8 47 4.6 CALM 0 7 0 4 1019.0 1018.9 0.0
20/05:30pm 14.0 12.0 2.2 45 5.3 SE 2 7 1 4 1018.6 1018.5 0.0
20/05:00pm 16.0 12.8 0.7 35 6.8 SE 7 13 4 7 1018.4 1018.3 0.0
20/04:30pm 16.8 13.9 1.3 35 7.0 ESE 6 11 3 6 1018.1 1018.0 0.0
20/04:00pm 17.1 13.2 0.9 33 7.3 ESE 11 17 6 9 1017.9 1017.7 0.0
20/03:30pm 17.4 13.8 0.7 32 7.5 ESE 9 20 5 11 1017.6 1017.4 0.0
20/03:00pm 17.8 14.0 -0.7 28 8.1 SE 9 17 5 9 1017.7 1017.5 0.0
20/02:30pm 17.8 14.6 -0.3 29 8.0 ENE 6 11 3 6 1017.7 1017.5 0.0
20/02:00pm 18.1 14.4 -0.1 29 8.1 SE 9 15 5 8 1017.8 1017.6 0.0
20/01:30pm 16.9 12.8 -0.2 31 7.5 E 11 20 6 11 1018.0 1017.9 0.0
20/01:00pm 16.1 11.2 -0.2 33 7.1 ESE 15 24 8 13 1018.5 1018.4 0.0
20/12:30pm 16.1 11.4 -1.6 29 7.5 SE 13 20 7 11 1019.0 1018.9 0.0
20/12:00pm 16.0 10.5 -1.8 29 7.5 SE 17 30 9 16 1019.7 1019.5 0.0
20/11:30am 15.1 9.2 -2.4 30 7.2 SSE 19 30 10 16 1020.2 1020.1 0.0
20/11:00am 14.6 9.5 -2.2 31 6.9 SE 15 24 8 13 1020.6 1020.5 0.0
20/10:30am 13.1 8.6 -3.0 32 6.4 SE 11 19 6 10 1021.1 1021.0 0.0
20/10:00am 11.6 7.9 -4.1 33 6.0 SE 6 11 3 6 1021.4 1021.3 0.0
20/09:30am 10.0 7.3 -6.3 31 5.8 CALM 0 9 0 5 1021.7 1021.6 0.0
20/09:00am 9.0 5.2 -26.0 6 7.8 CALM 0 0 0 0 1021.5 1021.4 0.0
20/08:30am 5.0 - - - - CALM 0 0 0 0 1021.4 1021.3 0.0
20/08:00am 2.0 - - - - CALM 0 0 0 0 1021.2 1021.1 0.0
20/07:30am 0.7 - - - - CALM 0 0 0 0 1020.9 1020.8 0.0
20/07:00am -2.2 - - - - CALM 0 2 0 1 1020.8 1020.7 0.0
20/06:30am -3.4 - - - - CALM 0 0 0 0 1020.4 1020.3 0.0
20/06:00am -3.5 - - - - CALM 0 0 0 0 1020.0 1019.9 0.0
20/05:30am -3.4 - - - - CALM 0 0 0 0 1019.5 1019.3 0.0
20/05:00am -1.9 - - - - CALM 0 6 0 3 1019.2 1019.1 0.0
20/04:30am -2.7 - - - - CALM 0 0 0 0 1019.0 1018.9 0.0
20/04:00am -2.2 - - - - CALM 0 0 0 0 1018.8 1018.7 0.0
20/03:30am -0.5 - - - - CALM 0 0 0 0 1018.7 1018.6 0.0
20/03:00am -1.9 - - - - CALM 0 0 0 0 1018.7 1018.6 0.0
20/02:30am -0.2 - - - - CALM 0 0 0 0 1018.7 1018.6 0.0
20/02:00am 1.2 - - - - CALM 0 0 0 0 1018.7 1018.6 0.0
20/01:30am 1.6 - - - - CALM 0 0 0 0 1019.0 1018.9 0.0
20/01:00am 3.7 0.6 -3.0 61 2.4 WNW 4 7 2 4 1019.0 1018.9 0.0
20/12:30am 4.8 0.6 -4.0 53 3.1 WNW 9 11 5 6 1019.1 1019.0 0.0
20/12:00am 5.4 1.6 -3.8 51 3.3 W 7 9 4 5 1019.2 1019.1 0.0
 
Date/Time
EST
Temp
°C
App
Temp
°C
Dew
Point
°C
Rel
Hum
%
Delta-T
°C
Wind Press
QNH
hPa
Press
MSL
hPa
Rain since
9am
mm
Dir  Spd
km/h
Gust
km/h
Spd
kts
Gust
kts
19/11:30pm 5.1 1.4 -4.3 50 3.3 W 6 7 3 4 1019.2 1019.1 0.0
19/11:00pm 5.8 1.1 -4.7 47 3.7 W 11 15 6 8 1019.2 1019.1 0.0
19/10:30pm 6.6 2.2 -5.9 40 4.3 W 9 13 5 7 1019.3 1019.2 0.0
19/10:00pm 7.8 2.5 -6.8 35 5.0 W 13 17 7 9 1019.2 1019.1 0.0
19/09:30pm 6.1 2.0 -6.7 39 4.3 WNW 7 9 4 5 1019.3 1019.2 0.0
19/09:00pm 7.2 3.3 -7.0 35 4.8 W 6 15 3 8 1019.1 1019.0 0.0
19/08:30pm 7.8 3.8 -5.9 37 4.8 WSW 7 11 4 6 1018.7 1018.6 0.0
19/08:00pm 8.4 4.3 -7.1 32 5.3 SW 7 11 4 6 1018.4 1018.3 0.0
19/07:30pm 8.4 2.6 -9.0 28 5.7 WSW 15 22 8 12 1018.1 1018.0 0.0
19/07:00pm 8.4 2.6 -9.0 28 5.7 SW 15 22 8 12 1018.0 1017.9 0.0
19/06:30pm 10.7 4.5 -8.7 24 6.6 SW 17 28 9 15 1017.5 1017.3 0.0
19/06:00pm 11.0 4.5 -8.0 25 6.6 WSW 19 26 10 14 1016.3 1016.2 0.0
19/05:30pm 11.9 4.4 -8.0 24 7.0 WSW 24 33 13 18 1016.0 1015.8 0.0
19/05:00pm 13.0 5.4 -9.2 20 7.7 WSW 24 35 13 19 1015.7 1015.5 0.0
19/04:30pm 13.9 5.6 -9.2 19 8.1 WSW 28 39 15 21 1015.2 1015.0 0.0
19/04:02pm 14.5 5.4 -9.3 18 8.4 WSW 32 50 17 27 1015.1 1014.9 0.0
19/04:00pm 14.4 5.1 -9.6 18 8.4 WSW 33 50 18 27 1014.9 1014.8 0.0
19/03:49pm 15.0 6.4 -8.0 19 8.4 SW 30 48 16 26 1014.8 1014.7 0.0
19/03:30pm 15.1 6.5 -8.3 19 8.5 SW 30 43 16 23 1014.8 1014.7 0.0
19/03:02pm 15.1 5.3 -11.4 15 9.0 SW 35 54 19 29 1014.7 1014.6 0.0
19/03:00pm 15.3 5.1 -11.4 15 9.1 SW 37 54 20 29 1014.8 1014.7 0.0
19/02:30pm 15.6 6.1 -11.9 14 9.3 SW 33 59 18 32 1014.7 1014.6 0.0
19/02:05pm 14.8 5.5 -9.7 17 8.6 WSW 33 52 18 28 1014.9 1014.8 0.0
19/02:00pm 14.8 5.2 -9.1 18 8.5 SW 35 52 19 28 1015.2 1015.0 0.0
19/01:33pm 14.9 6.0 -7.7 20 8.3 WSW 32 50 17 27 1015.2 1015.0 0.0
19/01:30pm 14.7 5.6 -7.7 20 8.2 WSW 33 50 18 27 1015.1 1014.9 0.0
19/01:01pm 14.7 5.7 -8.2 20 8.3 SW 32 54 17 29 1015.7 1015.5 0.0
19/01:00pm 14.8 6.2 -8.5 19 8.4 SW 30 46 16 25 1015.6 1015.4 0.0
19/12:30pm 14.7 5.8 -7.7 20 8.2 SW 32 50 17 27 1016.0 1015.8 0.0
19/12:07pm 13.7 5.5 -4.2 28 7.0 WSW 30 48 16 26 1016.4 1016.3 0.0
19/12:00pm 13.5 4.6 -6.9 23 7.5 WSW 32 48 17 26 1016.4 1016.3 0.0
19/11:32am 13.4 5.4 -6.2 25 7.3 WSW 28 46 15 25 1016.8 1016.7 0.0
19/11:30am 13.8 5.7 -6.8 23 7.6 SW 28 44 15 24 1016.7 1016.6 0.0
19/11:06am 12.7 3.2 -7.8 23 7.3 WSW 35 54 19 29 1017.0 1016.9 0.0
19/11:00am 12.7 3.3 -6.8 25 7.1 SW 35 46 19 25 1017.1 1017.0 0.0
19/10:30am 12.7 4.3 -6.3 26 7.0 WSW 30 43 16 23 1017.5 1017.3 0.0
19/10:00am 12.2 2.5 -5.5 28 6.6 SW 37 52 20 28 1017.9 1017.7 0.0
19/09:53am 12.1 3.6 -7.1 25 6.9 WSW 30 50 16 27 1017.8 1017.6 0.0
19/09:30am 11.5 5.4 -3.9 34 5.9 WSW 19 32 10 17 1018.1 1018.0 0.0
19/09:00am 10.5 3.1 -4.0 36 5.5 WSW 26 33 14 18 1018.2 1018.1 0.0
19/08:30am 9.3 3.0 -3.7 40 4.9 WSW 20 33 11 18 1018.3 1018.2 0.0
19/08:00am 8.5 3.7 -2.8 45 4.3 W 13 22 7 12 1018.2 1018.1 0.0
19/07:30am 7.4 2.2 -3.0 47 3.9 W 15 20 8 11 1017.9 1017.7 0.0
19/07:00am 6.9 2.0 -3.1 49 3.7 W 13 19 7 10 1017.8 1017.6 0.0
19/06:30am 6.2 2.1 -3.0 52 3.4 W 9 17 5 9 1017.6 1017.4 0.0
19/06:00am 5.4 1.4 -2.1 58 2.8 W 9 13 5 7 1017.3 1017.1 0.0
19/05:30am 5.3 1.8 -1.6 61 2.6 WNW 7 11 4 6 1016.9 1016.8 0.0
19/05:00am 6.2 2.5 -3.0 52 3.4 W 7 11 4 6 1016.7 1016.6 0.0
19/04:30am 6.8 2.7 -2.9 50 3.6 W 9 13 5 7 1016.7 1016.6 0.0
19/04:00am 7.6 2.6 -4.6 41 4.4 WSW 13 20 7 11 1016.6 1016.5 0.0
19/03:30am 7.8 2.4 -4.3 42 4.4 WSW 15 22 8 12 1016.5 1016.4 0.0
19/03:00am 8.4 2.2 -4.5 40 4.7 WSW 19 32 10 17 1016.5 1016.4 0.0
19/02:30am 8.4 3.0 -4.5 40 4.7 WSW 15 20 8 11 1016.6 1016.5 0.0
19/02:00am 8.3 3.4 -3.8 42 4.5 WSW 13 19 7 10 1016.6 1016.5 0.0
19/01:30am 8.2 3.2 -4.0 42 4.5 WSW 13 17 7 9 1016.8 1016.7 0.0
19/01:00am 8.3 3.4 -3.8 42 4.5 WSW 13 19 7 10 1017.0 1016.9 0.0
19/12:30am 8.4 3.9 -3.3 43 4.4 WSW 11 17 6 9 1017.0 1016.9 0.0
19/12:00am 9.1 4.2 -3.3 41 4.7 WSW 13 20 7 11 1017.1 1017.0 0.0
 
Date/Time
EST
Temp
°C
App
Temp
°C
Dew
Point
°C
Rel
Hum
%
Delta-T
°C
Wind Press
QNH
hPa
Press
MSL
hPa
Rain since
9am
mm
Dir  Spd
km/h
Gust
km/h
Spd
kts
Gust
kts
18/11:30pm 9.5 4.6 -3.8 39 5.0 WSW 13 20 7 11 1017.1 1017.0 0.0
18/11:00pm 9.5 4.6 -3.4 40 4.9 WSW 13 24 7 13 1017.3 1017.1 0.0
18/10:30pm 9.5 5.0 -3.4 40 4.9 WSW 11 17 6 9 1017.1 1017.0 0.0
18/10:00pm 11.0 5.2 -4.8 32 5.9 WSW 17 22 9 12 1017.1 1017.0 0.0
18/09:30pm 10.8 5.5 -3.9 35 5.6 WSW 15 24 8 13 1016.9 1016.8 0.0
18/09:00pm 11.6 5.9 -3.7 34 5.9 WSW 17 28 9 15 1016.8 1016.7 0.0
18/08:30pm 11.2 6.0 -2.8 37 5.5 WSW 15 26 8 14 1016.7 1016.6 0.0
18/08:00pm 12.3 7.0 -3.2 34 6.1 WSW 15 22 8 12 1016.3 1016.2 0.0
18/07:30pm 12.2 7.3 -3.0 34 6.0 WSW 13 22 7 12 1016.2 1016.1 0.0
18/07:00pm 13.1 7.8 -3.3 32 6.5 WSW 15 24 8 13 1015.8 1015.6 0.0
18/06:30pm 14.4 8.2 -5.0 26 7.5 W 19 32 10 17 1015.5 1015.3 0.0
18/06:00pm 14.9 7.3 -5.7 23 7.9 WSW 26 41 14 22 1015.1 1014.9 0.0
18/05:30pm 15.6 8.9 -3.8 26 7.8 W 22 35 12 19 1014.6 1014.5 0.0
18/05:00pm 16.7 9.2 -4.9 22 8.6 WSW 26 39 14 21 1014.1 1013.9 0.0
18/04:55pm 16.9 9.0 -4.9 22 8.7 WSW 28 46 15 25 1014.1 1013.9 0.0
18/04:30pm 17.5 9.6 -5.0 21 9.0 WSW 28 44 15 24 1013.6 1013.4 0.0
18/04:00pm 18.2 9.9 -4.7 20 9.3 WSW 30 50 16 27 1013.5 1013.3 0.0
18/03:51pm 18.4 9.6 -5.7 19 9.6 WSW 32 50 17 27 1013.4 1013.2 0.0
18/03:30pm 18.6 11.3 -3.0 23 9.1 W 26 43 14 23 1013.3 1013.1 0.0
18/03:00pm 19.2 10.3 -5.2 18 9.9 W 33 52 18 28 1013.1 1012.9 0.0
18/02:37pm 19.4 11.5 -4.7 19 9.9 W 28 52 15 28 1013.2 1013.0 0.0
18/02:30pm 19.5 11.3 -3.6 20 9.7 W 30 43 16 23 1013.2 1013.0 0.0
18/02:08pm 19.4 11.3 -3.3 21 9.6 W 30 50 16 27 1013.2 1013.0 0.0
18/02:00pm 20.1 12.7 -3.5 20 10.0 W 26 44 14 24 1013.1 1012.9 0.0
18/01:30pm 19.3 11.6 -3.1 22 9.5 W 28 46 15 25 1013.5 1013.3 0.0
18/01:01pm 19.4 11.8 -2.1 23 9.3 WSW 28 46 15 25 1013.7 1013.5 0.0
18/01:00pm 19.5 11.5 -2.3 23 9.4 WSW 30 46 16 25 1013.8 1013.6 0.0
18/12:31pm 19.0 11.2 -3.4 21 9.4 W 28 48 15 26 1014.2 1014.0 0.0
18/12:30pm 19.3 11.5 -3.6 21 9.6 W 28 43 15 23 1014.2 1014.0 0.0
18/12:00pm 19.4 10.8 -4.3 20 9.8 WSW 32 54 17 29 1014.6 1014.5 0.0
18/11:38am 18.7 10.2 -3.6 22 9.3 W 32 50 17 27 1015.1 1014.9 0.0
18/11:30am 18.3 9.2 -3.6 22 9.1 WSW 35 50 19 27 1015.2 1015.0 0.0
18/11:00am 18.5 10.0 -3.6 22 9.2 WSW 32 50 17 27 1015.5 1015.3 0.0
18/10:34am 18.1 9.6 -3.7 22 9.0 W 32 50 17 27 1015.7 1015.5 0.0
18/10:30am 18.2 10.4 -3.4 23 9.0 WSW 28 44 15 24 1015.7 1015.5 0.0
18/10:09am 18.3 9.7 -4.1 21 9.2 WSW 32 52 17 28 1015.7 1015.5 0.0
18/10:00am 18.6 10.0 -3.9 21 9.3 WSW 32 46 17 25 1015.9 1015.7 0.0
18/09:31am 17.6 9.4 -4.3 22 8.9 WSW 30 50 16 27 1015.9 1015.7 0.0
18/09:30am 17.7 9.5 -4.1 22 8.9 WSW 30 46 16 25 1016.0 1015.8 0.0
18/09:05am 17.1 9.2 -4.5 22 8.7 WSW 28 46 15 25 1015.9 1015.7 0.0
18/09:00am 16.9 10.6 -4.1 23 8.5 WSW 20 39 11 21 1015.9 1015.7 0.0
18/08:30am 15.4 9.8 -2.5 29 7.4 W 17 26 9 14 1016.0 1015.8 0.0
18/08:00am 13.9 8.8 -1.9 33 6.5 W 15 24 8 13 1015.8 1015.6 0.0
18/07:30am 10.2 6.4 -0.5 47 4.4 SW 9 15 5 8 1015.7 1015.5 0.0
18/07:00am 8.1 5.3 -0.3 55 3.4 SW 4 9 2 5 1015.3 1015.1 0.0
18/06:30am 7.5 4.6 -0.8 55 3.3 SW 4 7 2 4 1014.9 1014.8 0.0
18/06:00am 7.3 5.2 -0.8 56 3.2 CALM 0 2 0 1 1014.6 1014.5 0.0
18/05:30am 6.9 4.8 -0.7 58 3.0 CALM 0 0 0 0 1014.4 1014.3 0.0

Latest Capital City Observations: Canberra | Sydney | Melbourne | Brisbane | Adelaide | Perth | Hobart | Darwin

Other Formats:

Comma delimited format used in spreadsheet applications
http://www.bom.gov.au/fwo/IDQ60901/IDQ60901.94555.axf

JavaScript Object Notation format (JSON) in row-major order
http://www.bom.gov.au/fwo/IDQ60901/IDQ60901.94555.json